KHIE

Details ICAO KHIE
Name MOUNT WASHINGTON RGNL
Region United States
Timezone America/New_York (UTC-5.0)
Plans Departing 4
Arriving 7
Stats Elevation 1,074 ft / 327 m (AMSL)
Location 44.367554° -71.545810°
Runways 1
Magnetic Variation 15.003° W
Sunrise 2017-12-14 12:16:07 UTC / 2017-12-14 07:16:07 Local
Sunset 2017-12-14 21:08:36 UTC / 2017-12-14 16:08:36 Local
Advertisement - Login to hide

Runways

ID Width Length Bearing (true) Bearing (mag) Surface Threshold Offset Overrun Length
10 75 ft / 23 m 3,991 ft / 1,217 m 87.13° 102.13° Asphalt 0 ft / 0 m 0 ft / 0 m
28 75 ft / 23 m 3,991 ft / 1,217 m 267.14° 282.14° Asphalt 0 ft / 0 m 0 ft / 0 m

Approach Navaids

Runway Type Ident Frequency Range Bearing (true) Bearing (mag) Slope Elevation
10 Localiser IHIE 109.50 MHz 18 nm / 33 km 87.14° 102.15° - 1,074 ft / 327 m (AMSL)

Map

Weather


0- 5 10 15 20 25 30 35+ Temperature / ° C

Clouds and Precipitation
Forecast for 2017-12-14 12:00 UTC. Updated an hour ago

Ground ~20,000 ft ~40,000 ft Winds

METAR

KHIE 140952Z AUTO 23003KT 10SM SCT120 M13/M17 A2945 RMK AO2 SLP997 T11331172

TAF

KHIE 140903Z 1409/1506 24006KT P6SM SCT020 FM141600 28007KT P6SM SKC

Frequencies

Recorded 118.52 MHz ASOS
Clearance 122.40 MHz CLNC DEL
Unicom 122.80 MHz CTAF/UNICOM
Warning: Do not use this data for real-world aviation or navigation. No guarantee of current accuracy is given.